Terminal Aerodrome Forecast
Issued by NWS Louisville, KY

Home | Current Version | Previous Version | Text Only | Print | Product List | Glossary On
Versions: 1 2 3 4 5 6 7 8 9 10 11 12 13 14 15 16 17 18 19 20 21 22 23 24 25
000
FTUS43 KLMK 160159 AAA
TAFLEX
TAF AMD
KLEX 160159Z 1602/1624 09005KT 6SM -DZ BR OVC005
      TEMPO 1604/1606 3SM -DZ BR OVC004
     FM160600 09005KT 4SM -DZ BR OVC004
      TEMPO 1607/1611 2SM -DZ BR OVC003
     FM161100 11004KT 1SM BR OVC003
     FM161600 13006KT 3SM BR OVC005
     FM161800 17006KT 5SM BR BKN015=

USA.gov is the U.S. government's official web portal to all federal, state and local government web resources and services.